Time;durP1;ratioP1;P1;durP2;ratioP2;P2;SDS_P1;SDS_P2;PMS_P1;PMS_P2;Temp;Humidity;BMP_temperature;BMP_pressure;BME280_temperature;BME280_humidity;BME280_pressure;Samples;Min_cycle;Max_cycle;Signal;HPM_P1;HPM_P2
2022/03/28 00:02:24;;;;;;;;;37.67;31.00;;;;;;;;4974262;28;45315;-68
2022/03/28 00:04:49;;;;;;;;;38.67;26.33;;;;;;;;4983474;28;45471;-68
2022/03/28 00:07:14;;;;;;;;;33.67;27.00;;;;;;;;4993446;28;45351;-68
2022/03/28 00:09:40;;;;;;;;;26.00;23.67;;;;;;;;4993749;28;46436;-68
2022/03/28 00:12:05;;;;;;;;;31.67;25.00;;;;;;;;4993624;28;45415;-68
2022/03/28 00:14:30;;;;;;;;;36.67;29.67;;;;;;;;4993796;28;45287;-68
2022/03/28 00:16:57;;;;;;;;;34.33;29.67;;;;;;;;4993689;28;45884;-68
2022/03/28 00:19:22;;;;;;;;;28.33;24.33;;;;;;;;4993368;28;47259;-67
2022/03/28 00:21:47;;;;;;;;;34.33;28.00;;;;;;;;4982720;28;45457;-66
2022/03/28 00:24:13;;;;;;;;;35.00;27.67;;;;;;;;4972790;28;45504;-66
2022/03/28 00:26:38;;;;;;;;;31.33;26.67;;;;;;;;4974246;28;45361;-66
2022/03/28 00:29:04;;;;;;;;;31.67;27.67;;;;;;;;4988542;28;45445;-66
2022/03/28 00:31:30;;;;;;;;;32.67;24.67;;;;;;;;4993592;27;45516;-67
2022/03/28 00:33:55;;;;;;;;;34.67;27.00;;;;;;;;4993789;28;45407;-67
2022/03/28 00:36:20;;;;;;;;;31.00;27.33;;;;;;;;4994143;28;45398;-67
2022/03/28 00:38:45;;;;;;;;;33.67;30.33;;;;;;;;4993359;28;46493;-67
2022/03/28 00:41:11;;;;;;;;;31.33;24.67;;;;;;;;4993716;28;45433;-66
2022/03/28 00:43:42;;;;;;;;;39.00;30.67;;;;;;;;4994063;28;45356;-67
2022/03/28 00:46:07;;;;;;;;;30.00;28.00;;;;;;;;4993633;28;45494;-66
2022/03/28 00:48:32;;;;;;;;;44.33;33.67;;;;;;;;4992977;28;45512;-67
2022/03/28 00:50:58;;;;;;;;;31.00;30.00;;;;;;;;4993709;28;45391;-67
2022/03/28 00:53:24;;;;;;;;;35.00;30.33;;;;;;;;4993840;28;45367;-66
2022/03/28 00:55:50;;;;;;;;;28.33;25.00;;;;;;;;4997043;28;45319;-67
2022/03/28 00:58:15;;;;;;;;;29.00;26.00;;;;;;;;4996645;28;45361;-66
2022/03/28 01:00:40;;;;;;;;;40.67;33.33;;;;;;;;4996692;28;45314;-67
2022/03/28 01:03:05;;;;;;;;;30.67;26.33;;;;;;;;4996811;28;45471;-66
2022/03/28 01:05:31;;;;;;;;;35.00;26.00;;;;;;;;4997026;28;45449;-67
2022/03/28 01:07:56;;;;;;;;;31.33;27.00;;;;;;;;4996179;28;47418;-67
2022/03/28 01:10:22;;;;;;;;;34.33;29.67;;;;;;;;4996836;28;45432;-66
2022/03/28 01:12:47;;;;;;;;;33.67;25.00;;;;;;;;4996608;28;45389;-67
2022/03/28 01:15:14;;;;;;;;;31.00;26.33;;;;;;;;4996921;28;45304;-67
2022/03/28 01:20:26;;;;;;;;;36.33;28.33;;;;;;;;4996319;28;45322;-67
2022/03/28 01:22:52;;;;;;;;;26.00;26.00;;;;;;;;4996295;28;45629;-67
2022/03/28 01:25:20;;;;;;;;;30.67;23.00;;;;;;;;4996559;28;45237;-67
2022/03/28 01:27:46;;;;;;;;;30.67;23.67;;;;;;;;4996240;28;46309;-67
2022/03/28 01:30:11;;;;;;;;;27.00;26.67;;;;;;;;4996408;28;45762;-66
2022/03/28 01:32:37;;;;;;;;;28.33;24.00;;;;;;;;4996267;28;45291;-66
2022/03/28 01:35:02;;;;;;;;;33.00;28.33;;;;;;;;4996528;28;45362;-66
2022/03/28 01:37:27;;;;;;;;;33.00;23.67;;;;;;;;4995993;28;46466;-67
2022/03/28 01:39:52;;;;;;;;;27.67;26.33;;;;;;;;4996158;28;45504;-67
2022/03/28 01:42:18;;;;;;;;;29.33;25.00;;;;;;;;4996612;27;45344;-67
2022/03/28 01:44:47;;;;;;;;;28.00;26.67;;;;;;;;4988462;28;45371;-67
2022/03/28 01:47:13;;;;;;;;;31.00;29.00;;;;;;;;4976076;28;46202;-67
2022/03/28 01:49:38;;;;;;;;;29.33;27.00;;;;;;;;4976566;28;45158;-67
2022/03/28 01:52:04;;;;;;;;;28.67;25.33;;;;;;;;4977485;28;45313;-67
2022/03/28 01:54:29;;;;;;;;;33.67;25.67;;;;;;;;4976851;28;45126;-67
2022/03/28 01:56:54;;;;;;;;;33.33;28.67;;;;;;;;4977288;28;46321;-66
2022/03/28 01:59:20;;;;;;;;;39.67;30.67;;;;;;;;4989154;28;45251;-67
2022/03/28 02:01:45;;;;;;;;;28.00;28.00;;;;;;;;4996044;28;45633;-66
2022/03/28 02:04:10;;;;;;;;;29.67;27.00;;;;;;;;4996177;28;45231;-67
2022/03/28 02:06:36;;;;;;;;;39.00;28.00;;;;;;;;4995815;28;47434;-67
2022/03/28 02:09:01;;;;;;;;;34.33;32.00;;;;;;;;4995820;28;45337;-67
2022/03/28 02:11:28;;;;;;;;;32.67;29.33;;;;;;;;4991175;28;45506;-67
2022/03/28 02:13:54;;;;;;;;;37.67;30.33;;;;;;;;4993618;28;45387;-67
2022/03/28 02:16:19;;;;;;;;;45.67;33.67;;;;;;;;4981367;28;45411;-67
2022/03/28 02:18:44;;;;;;;;;37.33;32.33;;;;;;;;4976061;28;45272;-67
2022/03/28 02:21:09;;;;;;;;;31.00;25.00;;;;;;;;4976299;28;45232;-67
2022/03/28 02:23:35;;;;;;;;;38.67;30.00;;;;;;;;4976341;28;45414;-67
2022/03/28 02:26:02;;;;;;;;;37.67;28.67;;;;;;;;4976064;28;46611;-67
2022/03/28 02:28:28;;;;;;;;;38.67;30.00;;;;;;;;4984128;28;45407;-66
2022/03/28 02:30:54;;;;;;;;;33.00;28.67;;;;;;;;4995821;28;45262;-66
2022/03/28 02:33:19;;;;;;;;;31.67;28.00;;;;;;;;4993167;28;45369;-67
2022/03/28 02:35:44;;;;;;;;;25.33;22.00;;;;;;;;4975992;28;45290;-66
2022/03/28 02:38:10;;;;;;;;;29.67;27.00;;;;;;;;4976152;28;45265;-67
2022/03/28 02:40:35;;;;;;;;;27.67;25.00;;;;;;;;4992676;28;45184;-67
2022/03/28 02:43:03;;;;;;;;;32.33;25.00;;;;;;;;4995933;28;45370;-67
2022/03/28 02:45:32;;;;;;;;;29.00;26.00;;;;;;;;4995185;28;45682;-67
2022/03/28 02:47:59;;;;;;;;;37.00;30.33;;;;;;;;4988771;28;45299;-67
2022/03/28 02:50:24;;;;;;;;;29.33;24.33;;;;;;;;4975863;28;45340;-67
2022/03/28 02:52:49;;;;;;;;;33.67;29.33;;;;;;;;4976060;28;45275;-67
2022/03/28 02:55:15;;;;;;;;;35.33;29.00;;;;;;;;4975749;28;46178;-67
2022/03/28 02:57:40;;;;;;;;;42.00;32.00;;;;;;;;4975654;28;45315;-66
2022/03/28 03:00:10;;;;;;;;;34.33;30.00;;;;;;;;4975690;28;45502;-67
2022/03/28 03:02:36;;;;;;;;;33.00;28.67;;;;;;;;4975648;28;45437;-67
2022/03/28 03:05:02;;;;;;;;;26.33;24.00;;;;;;;;4975325;28;47259;-67
2022/03/28 03:07:27;;;;;;;;;29.00;24.00;;;;;;;;4979507;28;45316;-67
2022/03/28 03:09:52;;;;;;;;;33.00;31.33;;;;;;;;4995432;28;45448;-67
2022/03/28 03:12:18;;;;;;;;;34.00;26.67;;;;;;;;4982502;28;45453;-67
2022/03/28 03:14:43;;;;;;;;;36.67;29.67;;;;;;;;4981951;28;45250;-66
2022/03/28 03:17:08;;;;;;;;;35.00;23.00;;;;;;;;4994429;28;45366;-66
2022/03/28 03:19:34;;;;;;;;;33.33;27.33;;;;;;;;4995040;28;45401;-67
2022/03/28 03:21:59;;;;;;;;;29.33;26.33;;;;;;;;4994962;28;45246;-66
2022/03/28 03:24:24;;;;;;;;;27.67;27.00;;;;;;;;4994836;28;45531;-66
2022/03/28 03:26:49;;;;;;;;;30.33;24.67;;;;;;;;4995071;28;45245;-66
2022/03/28 03:29:15;;;;;;;;;27.33;25.33;;;;;;;;4994978;28;45340;-67
2022/03/28 03:31:40;;;;;;;;;28.33;24.00;;;;;;;;4975829;28;45494;-67
2022/03/28 03:34:06;;;;;;;;;36.67;28.67;;;;;;;;4974973;28;46603;-67
2022/03/28 03:36:32;;;;;;;;;28.67;27.00;;;;;;;;4975169;28;45339;-67
2022/03/28 03:38:57;;;;;;;;;26.67;25.00;;;;;;;;4975407;28;45340;-67
2022/03/28 03:41:22;;;;;;;;;35.67;28.67;;;;;;;;4975330;28;45287;-67
2022/03/28 03:43:48;;;;;;;;;30.67;26.67;;;;;;;;4975140;28;45302;-67
2022/03/28 03:46:13;;;;;;;;;36.00;31.33;;;;;;;;4992123;28;45488;-67
2022/03/28 03:48:39;;;;;;;;;44.00;31.00;;;;;;;;4990396;28;45390;-66
2022/03/28 03:51:04;;;;;;;;;42.33;36.67;;;;;;;;4975442;28;45309;-66
2022/03/28 03:53:29;;;;;;;;;39.33;34.67;;;;;;;;4974857;28;45362;-66
2022/03/28 03:55:54;;;;;;;;;44.00;35.33;;;;;;;;4974901;28;45291;-66
2022/03/28 03:58:20;;;;;;;;;43.67;36.33;;;;;;;;4974970;28;45318;-66
2022/03/28 04:00:45;;;;;;;;;44.67;37.33;;;;;;;;4975092;28;45463;-66
2022/03/28 04:03:10;;;;;;;;;41.00;35.00;;;;;;;;4988538;28;46365;-66
2022/03/28 04:05:37;;;;;;;;;42.33;35.00;;;;;;;;4994487;28;45319;-66
2022/03/28 04:08:04;;;;;;;;;44.00;35.00;;;;;;;;4994520;28;45215;-66
2022/03/28 04:10:30;;;;;;;;;39.67;35.00;;;;;;;;4994509;28;45595;-66
2022/03/28 04:12:56;;;;;;;;;37.67;33.00;;;;;;;;4993014;28;46719;-67
2022/03/28 04:15:21;;;;;;;;;40.33;34.33;;;;;;;;4994158;28;45328;-66
2022/03/28 04:17:46;;;;;;;;;38.67;31.67;;;;;;;;4994337;28;45394;-67
2022/03/28 04:20:13;;;;;;;;;46.67;33.67;;;;;;;;4977862;28;45500;-66
2022/03/28 04:22:39;;;;;;;;;45.00;35.67;;;;;;;;4974536;28;45522;-67
2022/03/28 04:25:05;;;;;;;;;35.00;29.00;;;;;;;;4974276;28;45449;-66
2022/03/28 04:27:30;;;;;;;;;45.00;32.00;;;;;;;;4974400;28;45405;-66
2022/03/28 04:29:55;;;;;;;;;42.00;34.67;;;;;;;;4976823;28;45309;-66
2022/03/28 04:32:20;;;;;;;;;34.67;30.33;;;;;;;;4994138;28;46524;-67
2022/03/28 04:34:46;;;;;;;;;37.00;29.00;;;;;;;;4996897;28;45331;-66
2022/03/28 04:37:11;;;;;;;;;42.00;35.33;;;;;;;;4996636;28;45534;-67
2022/03/28 04:39:36;;;;;;;;;37.33;29.67;;;;;;;;4997392;28;45293;-68
2022/03/28 04:42:01;;;;;;;;;35.67;32.67;;;;;;;;4996927;28;46553;-66
2022/03/28 04:44:26;;;;;;;;;34.67;27.67;;;;;;;;4996751;28;45571;-66
2022/03/28 04:46:52;;;;;;;;;40.33;34.67;;;;;;;;4995944;28;45412;-67
2022/03/28 04:49:17;;;;;;;;;75.67;50.33;;;;;;;;5014024;28;45407;-66
2022/03/28 04:51:43;;;;;;;;;51.00;36.67;;;;;;;;4999684;28;46425;-66
2022/03/28 04:54:08;;;;;;;;;46.00;35.00;;;;;;;;4986755;28;45437;-66
2022/03/28 04:56:34;;;;;;;;;34.67;26.67;;;;;;;;4996223;28;45381;-66
2022/03/28 04:59:00;;;;;;;;;42.00;32.67;;;;;;;;4996805;28;45242;-66
2022/03/28 05:01:25;;;;;;;;;39.67;33.33;;;;;;;;4996470;28;46122;-66
2022/03/28 05:03:51;;;;;;;;;38.33;34.00;;;;;;;;4997942;28;45432;-66
2022/03/28 05:06:16;;;;;;;;;45.33;34.00;;;;;;;;4996652;28;45551;-66
2022/03/28 05:08:41;;;;;;;;;38.33;35.33;;;;;;;;5004947;28;45478;-66
2022/03/28 05:11:06;;;;;;;;;42.00;36.00;;;;;;;;5015884;28;45527;-66
2022/03/28 05:13:32;;;;;;;;;48.33;34.33;;;;;;;;5016405;28;45418;-66
2022/03/28 05:15:57;;;;;;;;;38.00;34.33;;;;;;;;5016406;28;45411;-66
2022/03/28 05:18:23;;;;;;;;;45.33;36.00;;;;;;;;5016578;28;45311;-66
2022/03/28 05:20:48;;;;;;;;;42.00;34.00;;;;;;;;5016170;28;46323;-66
2022/03/28 05:23:13;;;;;;;;;44.00;35.67;;;;;;;;5010188;28;45265;-66
2022/03/28 05:25:38;;;;;;;;;44.67;35.00;;;;;;;;4996517;28;45431;-65
2022/03/28 05:28:05;;;;;;;;;58.00;47.25;;;;;;;;4996347;28;45647;-65
2022/03/28 05:30:30;;;;;;;;;41.67;37.00;;;;;;;;4995931;28;46652;-65
2022/03/28 05:32:55;;;;;;;;;50.00;38.33;;;;;;;;4996194;28;45447;-65
2022/03/28 05:35:20;;;;;;;;;38.67;34.00;;;;;;;;4996255;28;45720;-65
2022/03/28 05:37:46;;;;;;;;;52.33;42.00;;;;;;;;4996358;28;45547;-65
2022/03/28 05:40:11;;;;;;;;;43.33;33.67;;;;;;;;4995881;28;46373;-65
2022/03/28 05:42:36;;;;;;;;;55.33;45.33;;;;;;;;5003594;28;45201;-65
2022/03/28 05:45:02;;;;;;;;;46.00;37.00;;;;;;;;4976674;28;45278;-65
2022/03/28 05:47:28;;;;;;;;;48.00;37.33;;;;;;;;4976292;28;45283;-65
2022/03/28 05:49:53;;;;;;;;;48.33;37.33;;;;;;;;4976009;28;46676;-65
2022/03/28 05:52:18;;;;;;;;;51.67;37.67;;;;;;;;4976268;28;45148;-65
2022/03/28 05:54:44;;;;;;;;;45.67;36.33;;;;;;;;4976393;28;45336;-65
2022/03/28 05:57:09;;;;;;;;;47.00;37.00;;;;;;;;4976658;28;45445;-65
2022/03/28 05:59:34;;;;;;;;;54.00;40.67;;;;;;;;4995955;28;45443;-66
2022/03/28 06:01:59;;;;;;;;;36.00;28.33;;;;;;;;4995900;28;45369;-65
2022/03/28 06:04:25;;;;;;;;;43.33;37.67;;;;;;;;4995579;28;45176;-65
2022/03/28 06:06:50;;;;;;;;;42.33;36.00;;;;;;;;4995766;28;45293;-65
2022/03/28 06:09:15;;;;;;;;;59.33;48.33;;;;;;;;4995675;28;46638;-65
2022/03/28 06:11:40;;;;;;;;;46.33;37.33;;;;;;;;4995779;28;45134;-65
2022/03/28 06:14:06;;;;;;;;;76.50;64.75;;;;;;;;5033085;27;45422;-65
2022/03/28 06:16:31;;;;;;;;;47.33;36.00;;;;;;;;5026341;27;45244;-66
2022/03/28 06:18:56;;;;;;;;;52.00;37.00;;;;;;;;4995502;28;45412;-66
2022/03/28 06:21:22;;;;;;;;;54.67;42.00;;;;;;;;4994427;28;45370;-66
2022/03/28 06:23:47;;;;;;;;;48.00;37.33;;;;;;;;4995722;28;45276;-65
2022/03/28 06:26:12;;;;;;;;;51.67;43.00;;;;;;;;4997115;28;45313;-66
2022/03/28 06:28:39;;;;;;;;;55.67;40.33;;;;;;;;5015088;28;46622;-65
2022/03/28 06:31:04;;;;;;;;;66.25;50.50;;;;;;;;5015362;28;45366;-66
2022/03/28 06:33:29;;;;;;;;;55.33;42.00;;;;;;;;5014740;28;45404;-66
2022/03/28 06:35:56;;;;;;;;;60.50;49.00;;;;;;;;5012916;28;45425;-66
2022/03/28 06:38:21;;;;;;;;;55.33;44.33;;;;;;;;4995584;28;47276;-66
2022/03/28 06:40:46;;;;;;;;;57.33;43.67;;;;;;;;4995369;28;45373;-66
2022/03/28 06:43:12;;;;;;;;;62.25;48.50;;;;;;;;5014155;28;45375;-66
2022/03/28 06:45:37;;;;;;;;;63.50;49.50;;;;;;;;5010671;28;45434;-66
2022/03/28 06:48:03;;;;;;;;;60.67;43.67;;;;;;;;5015013;28;45627;-67
2022/03/28 06:50:29;;;;;;;;;56.67;43.33;;;;;;;;5015318;28;45202;-67
2022/03/28 06:52:54;;;;;;;;;53.00;43.00;;;;;;;;5014332;28;45223;-67
2022/03/28 06:55:20;;;;;;;;;68.50;50.75;;;;;;;;5015015;28;45247;-67
2022/03/28 06:57:45;;;;;;;;;56.67;45.00;;;;;;;;5015011;28;46558;-66
2022/03/28 07:00:11;;;;;;;;;54.00;42.33;;;;;;;;5011545;28;45433;-66
2022/03/28 07:02:37;;;;;;;;;56.33;45.33;;;;;;;;5014524;28;45278;-66
2022/03/28 07:05:04;;;;;;;;;54.67;44.33;;;;;;;;4996470;28;45378;-67
2022/03/28 07:07:37;;;;;;;;;58.67;43.33;;;;;;;;5014658;28;46432;-66
2022/03/28 07:10:02;;;;;;;;;60.67;44.00;;;;;;;;5014960;28;45326;-66
2022/03/28 07:12:28;;;;;;;;;56.33;47.00;;;;;;;;5005019;28;45760;-66
2022/03/28 07:14:53;;;;;;;;;54.67;43.33;;;;;;;;4995375;28;45468;-67
2022/03/28 07:17:19;;;;;;;;;58.25;46.25;;;;;;;;4994907;28;45354;-66
2022/03/28 07:19:46;;;;;;;;;60.25;47.00;;;;;;;;4994795;28;45334;-67
2022/03/28 07:22:11;;;;;;;;;61.00;47.00;;;;;;;;4995239;28;45230;-67
2022/03/28 07:24:37;;;;;;;;;51.00;40.33;;;;;;;;4994595;28;45232;-67
2022/03/28 07:27:02;;;;;;;;;60.67;46.33;;;;;;;;4994823;28;46201;-66
2022/03/28 07:29:27;;;;;;;;;61.50;47.00;;;;;;;;4995008;28;45684;-66
2022/03/28 07:31:54;;;;;;;;;55.67;44.67;;;;;;;;4994891;28;45205;-66
2022/03/28 07:34:32;;;;;;;;;55.67;45.67;;;;;;;;4995312;28;45294;-67
2022/03/28 07:36:57;;;;;;;;;54.33;42.00;;;;;;;;4994486;28;47320;-67
2022/03/28 07:39:23;;;;;;;;;60.00;44.33;;;;;;;;4994579;28;45265;-66
2022/03/28 07:41:49;;;;;;;;;59.50;47.00;;;;;;;;5004725;28;45410;-66
2022/03/28 07:44:14;;;;;;;;;58.75;48.25;;;;;;;;5011732;28;45517;-67
2022/03/28 07:46:40;;;;;;;;;58.25;45.50;;;;;;;;5013372;28;45512;-66
2022/03/28 07:49:07;;;;;;;;;67.50;51.25;;;;;;;;5014465;28;45416;-66
2022/03/28 07:51:32;;;;;;;;;67.00;49.00;;;;;;;;5013883;28;45437;-67
2022/03/28 07:53:57;;;;;;;;;69.75;52.50;;;;;;;;5014132;28;45307;-66
2022/03/28 07:56:23;;;;;;;;;59.75;47.75;;;;;;;;5029384;28;46579;-66
2022/03/28 07:58:48;;;;;;;;;58.50;46.00;;;;;;;;5014188;28;45414;-66
2022/03/28 08:01:13;;;;;;;;;70.75;55.25;;;;;;;;5013651;28;45418;-67
2022/03/28 08:03:38;;;;;;;;;68.00;50.50;;;;;;;;5013606;28;45467;-66
2022/03/28 08:06:04;;;;;;;;;65.25;50.25;;;;;;;;5017043;28;45585;-68
2022/03/28 08:08:31;;;;;;;;;58.75;47.00;;;;;;;;5017083;28;45403;-66
2022/03/28 08:10:57;;;;;;;;;64.50;48.75;;;;;;;;5015156;28;45218;-66
2022/03/28 08:13:22;;;;;;;;;57.75;47.00;;;;;;;;5015518;28;45370;-66
2022/03/28 08:15:47;;;;;;;;;64.25;50.50;;;;;;;;5015460;28;48076;-66
2022/03/28 08:18:13;;;;;;;;;64.00;50.75;;;;;;;;5017140;28;45421;-66
2022/03/28 08:20:38;;;;;;;;;65.00;51.00;;;;;;;;5016208;28;45301;-66
2022/03/28 08:23:03;;;;;;;;;61.00;48.00;;;;;;;;5017077;28;45391;-66
2022/03/28 08:25:30;;;;;;;;;62.75;48.25;;;;;;;;5016767;28;46333;-67
2022/03/28 08:27:56;;;;;;;;;75.50;60.50;;;;;;;;5016704;28;45257;-68
2022/03/28 08:30:21;;;;;;;;;69.50;54.00;;;;;;;;5017051;28;45224;-68
2022/03/28 08:32:47;;;;;;;;;66.75;51.50;;;;;;;;5000644;28;45608;-68
2022/03/28 08:35:12;;;;;;;;;63.75;50.75;;;;;;;;4997039;28;46605;-68
2022/03/28 08:37:38;;;;;;;;;67.25;51.00;;;;;;;;4996931;28;45330;-68
2022/03/28 08:40:04;;;;;;;;;66.00;51.00;;;;;;;;4996972;28;45214;-66
2022/03/28 08:42:29;;;;;;;;;60.75;51.00;;;;;;;;4997173;28;45301;-66
2022/03/28 08:44:55;;;;;;;;;64.00;50.25;;;;;;;;5016598;28;46264;-65
2022/03/28 08:47:22;;;;;;;;;59.50;49.00;;;;;;;;5005045;28;45484;-66
2022/03/28 08:49:47;;;;;;;;;64.75;49.75;;;;;;;;5016856;28;45499;-66
2022/03/28 08:52:13;;;;;;;;;59.00;45.50;;;;;;;;5016646;28;45289;-68
2022/03/28 08:54:38;;;;;;;;;60.00;46.00;;;;;;;;5016596;28;45414;-66
2022/03/28 08:57:04;;;;;;;;;54.50;43.75;;;;;;;;5016464;28;45338;-66
2022/03/28 08:59:29;;;;;;;;;63.25;47.00;;;;;;;;5016596;28;45362;-66
2022/03/28 09:01:54;;;;;;;;;55.00;42.67;;;;;;;;5014655;28;45373;-66
2022/03/28 09:04:19;;;;;;;;;60.67;46.00;;;;;;;;5013021;28;46490;-66
2022/03/28 09:06:45;;;;;;;;;61.75;47.75;;;;;;;;5016324;28;45233;-66
2022/03/28 09:09:13;;;;;;;;;58.00;45.25;;;;;;;;5016349;28;45405;-67
2022/03/28 09:11:39;;;;;;;;;50.25;42.75;;;;;;;;5007880;28;45236;-66
2022/03/28 09:14:04;;;;;;;;;55.67;46.67;;;;;;;;4995897;28;45333;-66
2022/03/28 09:16:34;;;;;;;;;54.33;44.33;;;;;;;;4996329;28;45272;-66
2022/03/28 09:19:00;;;;;;;;;52.00;40.33;;;;;;;;4997131;28;45319;-66
2022/03/28 09:21:25;;;;;;;;;51.67;37.67;;;;;;;;5016313;28;45328;-66
2022/03/28 09:23:52;;;;;;;;;52.00;41.67;;;;;;;;5015956;28;46239;-66
2022/03/28 09:26:22;;;;;;;;;54.67;42.00;;;;;;;;5016142;28;45275;-66
2022/03/28 09:28:49;;;;;;;;;54.67;40.33;;;;;;;;5016084;28;45314;-67
2022/03/28 09:31:18;;;;;;;;;49.67;37.33;;;;;;;;5006243;28;45310;-67
2022/03/28 09:33:58;;;;;;;;;47.33;37.33;;;;;;;;4996086;28;46109;-67
2022/03/28 09:36:53;;;;;;;;;49.33;40.00;;;;;;;;5000356;28;45580;-67
2022/03/28 09:39:28;;;;;;;;;46.00;39.33;;;;;;;;5013942;28;45336;-67
2022/03/28 09:42:01;;;;;;;;;48.67;39.00;;;;;;;;5004124;28;45545;-67
2022/03/28 09:44:34;;;;;;;;;52.67;40.33;;;;;;;;4993814;28;45736;-67
2022/03/28 09:47:04;;;;;;;;;46.33;38.00;;;;;;;;4996113;28;45419;-67
2022/03/28 09:49:29;;;;;;;;;53.33;40.33;;;;;;;;4994078;28;45399;-67
2022/03/28 09:52:01;;;;;;;;;52.33;40.67;;;;;;;;5001617;28;45502;-67
2022/03/28 09:54:28;;;;;;;;;50.00;39.67;;;;;;;;5013062;28;46373;-67
2022/03/28 09:57:09;;;;;;;;;48.33;39.00;;;;;;;;4994963;28;45506;-68
2022/03/28 09:59:39;;;;;;;;;45.67;34.67;;;;;;;;5002929;28;45509;-67
2022/03/28 10:02:17;;;;;;;;;44.00;35.33;;;;;;;;4993733;28;45439;-67
2022/03/28 10:04:44;;;;;;;;;53.00;40.50;;;;;;;;5000268;27;45712;-67
2022/03/28 10:07:09;;;;;;;;;50.75;40.00;;;;;;;;4993365;28;45300;-67
2022/03/28 10:09:35;;;;;;;;;49.50;40.25;;;;;;;;4993761;28;45460;-67
2022/03/28 10:12:01;;;;;;;;;49.00;37.67;;;;;;;;4993965;28;45483;-67
2022/03/28 10:14:26;;;;;;;;;46.67;37.67;;;;;;;;4993510;28;45379;-67
2022/03/28 10:16:52;;;;;;;;;48.67;38.67;;;;;;;;4995729;28;45319;-67
2022/03/28 10:19:18;;;;;;;;;49.75;39.00;;;;;;;;4995836;28;45320;-67
2022/03/28 10:21:44;;;;;;;;;44.00;35.25;;;;;;;;5027379;28;45736;-67
2022/03/28 10:24:14;;;;;;;;;44.25;35.25;;;;;;;;4995677;28;46726;-67
2022/03/28 10:26:42;;;;;;;;;39.00;31.75;;;;;;;;5002345;28;45523;-67
2022/03/28 10:29:11;;;;;;;;;47.00;34.50;;;;;;;;4999255;28;45398;-67
2022/03/28 10:31:57;;;;;;;;;45.00;35.25;;;;;;;;4995336;28;45505;-67
2022/03/28 10:35:01;;;;;;;;;40.25;33.75;;;;;;;;5005647;28;45661;-67
2022/03/28 10:37:32;;;;;;;;;40.25;34.00;;;;;;;;5009248;28;45451;-67
2022/03/28 10:40:12;;;;;;;;;41.00;36.00;;;;;;;;5010895;28;45415;-67
2022/03/28 10:42:38;;;;;;;;;38.00;32.00;;;;;;;;5012647;28;45634;-67
2022/03/28 10:45:05;;;;;;;;;44.00;31.67;;;;;;;;5012238;28;46420;-67
2022/03/28 10:47:43;;;;;;;;;37.00;32.33;;;;;;;;5008579;28;45436;-67
2022/03/28 10:50:10;;;;;;;;;38.00;33.00;;;;;;;;4993568;28;45358;-68
2022/03/28 10:52:35;;;;;;;;;42.00;33.67;;;;;;;;4994908;28;45437;-67
2022/03/28 10:55:08;;;;;;;;;39.00;33.00;;;;;;;;5000992;28;46480;-67
2022/03/28 10:57:34;;;;;;;;;45.67;33.00;;;;;;;;4984603;28;45479;-68
2022/03/28 11:00:05;;;;;;;;;65.75;50.50;;;;;;;;5007734;28;45428;-68
2022/03/28 11:02:30;;;;;;;;;34.67;30.33;;;;;;;;5011621;28;45443;-68
2022/03/28 11:05:05;;;;;;;;;32.00;27.67;;;;;;;;5010139;28;46816;-68
2022/03/28 11:07:30;;;;;;;;;34.33;26.67;;;;;;;;5011860;28;45397;-68
2022/03/28 11:09:58;;;;;;;;;39.33;31.67;;;;;;;;5012205;28;45863;-68
2022/03/28 11:12:37;;;;;;;;;36.33;30.00;;;;;;;;4998171;28;45493;-68
2022/03/28 11:15:05;;;;;;;;;31.33;27.00;;;;;;;;5013334;28;47257;-68
2022/03/28 11:17:36;;;;;;;;;36.33;31.00;;;;;;;;4978938;28;45422;-68
2022/03/28 11:20:07;;;;;;;;;38.33;32.33;;;;;;;;4979847;28;45728;-68
2022/03/28 11:22:38;;;;;;;;;38.67;33.00;;;;;;;;4994383;28;45395;-67
2022/03/28 11:25:04;;;;;;;;;37.33;31.67;;;;;;;;5005969;28;47284;-67
2022/03/28 11:27:30;;;;;;;;;37.33;28.67;;;;;;;;4998729;28;45288;-68
2022/03/28 11:30:00;;;;;;;;;34.67;27.67;;;;;;;;5007015;28;45617;-68
2022/03/28 11:32:28;;;;;;;;;46.67;38.00;;;;;;;;5000832;28;45363;-67
2022/03/28 11:34:54;;;;;;;;;36.00;26.67;;;;;;;;5003622;28;46240;-67
2022/03/28 11:37:23;;;;;;;;;40.00;28.33;;;;;;;;4998193;28;45414;-67
2022/03/28 11:39:59;;;;;;;;;32.67;23.67;;;;;;;;5000503;28;45491;-68
2022/03/28 11:42:25;;;;;;;;;24.33;23.33;;;;;;;;5001730;28;45433;-67
2022/03/28 11:44:51;;;;;;;;;30.00;27.33;;;;;;;;4998085;28;46210;-67
2022/03/28 11:47:17;;;;;;;;;29.33;23.00;;;;;;;;4993668;28;45444;-67
2022/03/28 11:49:53;;;;;;;;;38.00;31.67;;;;;;;;4994034;28;45339;-67
2022/03/28 11:52:18;;;;;;;;;27.00;21.33;;;;;;;;4993421;28;45715;-68
2022/03/28 11:54:44;;;;;;;;;32.00;27.00;;;;;;;;4993158;28;45439;-67
2022/03/28 11:59:53;;;;;;;;;33.33;28.00;;;;;;;;4994053;28;45431;-68
2022/03/28 12:02:19;;;;;;;;;39.67;31.33;;;;;;;;4981304;28;45502;-68
2022/03/28 12:04:44;;;;;;;;;38.33;30.67;;;;;;;;5064703;27;46211;-67
2022/03/28 12:07:10;;;;;;;;;32.33;29.33;;;;;;;;4988977;28;45503;-68
2022/03/28 12:09:40;;;;;;;;;31.33;25.67;;;;;;;;4991551;28;46853;-68
2022/03/28 12:12:05;;;;;;;;;41.33;25.67;;;;;;;;4984345;28;45417;-68
2022/03/28 12:14:31;;;;;;;;;27.33;22.67;;;;;;;;4973748;28;45401;-68
2022/03/28 12:16:57;;;;;;;;;26.33;22.67;;;;;;;;4985712;28;45467;-67
2022/03/28 12:19:27;;;;;;;;;27.00;21.00;;;;;;;;4993451;28;45893;-67
2022/03/28 12:21:53;;;;;;;;;20.33;16.33;;;;;;;;4993988;28;45441;-68
2022/03/28 12:24:20;;;;;;;;;38.33;28.00;;;;;;;;4993002;28;46519;-68
2022/03/28 12:26:47;;;;;;;;;30.67;25.33;;;;;;;;4993382;28;45513;-67
2022/03/28 12:29:12;;;;;;;;;38.67;29.67;;;;;;;;4993530;28;45452;-68
2022/03/28 12:31:42;;;;;;;;;28.00;27.67;;;;;;;;4993559;28;45381;-68
2022/03/28 12:34:08;;;;;;;;;33.67;26.00;;;;;;;;4993106;28;45789;-67
2022/03/28 12:36:34;;;;;;;;;36.67;28.67;;;;;;;;4992726;28;45414;-67
2022/03/28 12:39:01;;;;;;;;;25.67;24.00;;;;;;;;4973707;28;45387;-67
2022/03/28 12:41:27;;;;;;;;;25.67;18.33;;;;;;;;4980645;28;45260;-67
2022/03/28 12:43:53;;;;;;;;;19.33;15.67;;;;;;;;4992627;27;45449;-67
2022/03/28 12:46:18;;;;;;;;;32.33;25.67;;;;;;;;4988666;28;45334;-67
2022/03/28 12:48:46;;;;;;;;;23.33;19.33;;;;;;;;4973525;28;45296;-67
2022/03/28 12:51:12;;;;;;;;;29.33;24.33;;;;;;;;4982884;28;45764;-67
2022/03/28 12:53:38;;;;;;;;;30.33;24.33;;;;;;;;4976364;28;45525;-67
2022/03/28 12:56:15;;;;;;;;;27.33;25.67;;;;;;;;4996955;28;45839;-67
2022/03/28 12:58:42;;;;;;;;;28.33;24.67;;;;;;;;4986754;28;45754;-67
2022/03/28 13:01:09;;;;;;;;;28.00;24.00;;;;;;;;4994187;28;45356;-67
2022/03/28 13:03:34;;;;;;;;;21.33;21.33;;;;;;;;4995812;28;46436;-67
2022/03/28 13:06:08;;;;;;;;;28.33;24.33;;;;;;;;4994367;28;45465;-67
2022/03/28 13:08:34;;;;;;;;;28.00;22.00;;;;;;;;4996208;28;45479;-67
2022/03/28 13:11:09;;;;;;;;;29.00;21.33;;;;;;;;4982377;28;45557;-67
2022/03/28 13:13:35;;;;;;;;;22.67;19.33;;;;;;;;4995887;28;45491;-67
2022/03/28 13:16:00;;;;;;;;;24.67;21.67;;;;;;;;4995500;28;45400;-67
2022/03/28 13:18:25;;;;;;;;;28.67;22.00;;;;;;;;4978159;28;45481;-69
2022/03/28 13:20:54;;;;;;;;;23.00;20.00;;;;;;;;4976546;28;45378;-66
2022/03/28 13:23:21;;;;;;;;;31.00;23.00;;;;;;;;4974829;28;47476;-67
2022/03/28 13:25:46;;;;;;;;;27.00;21.00;;;;;;;;4983344;28;45555;-67
2022/03/28 13:28:32;;;;;;;;;26.67;22.67;;;;;;;;4990196;28;45425;-66
2022/03/28 13:30:58;;;;;;;;;19.33;16.33;;;;;;;;4999990;28;45321;-66
2022/03/28 13:33:23;;;;;;;;;21.67;19.33;;;;;;;;5010871;28;47492;-66
2022/03/28 13:35:53;;;;;;;;;25.67;23.67;;;;;;;;4987503;28;45369;-66
2022/03/28 13:38:21;;;;;;;;;27.33;20.33;;;;;;;;4995323;28;45517;-66
2022/03/28 13:40:50;;;;;;;;;24.00;20.67;;;;;;;;4995729;28;45327;-67
2022/03/28 13:43:16;;;;;;;;;29.67;24.33;;;;;;;;4995633;28;45982;-67
2022/03/28 13:45:42;;;;;;;;;31.67;28.00;;;;;;;;4995347;28;45337;-67
2022/03/28 13:48:09;;;;;;;;;22.00;20.33;;;;;;;;5010038;28;45291;-67
2022/03/28 13:50:35;;;;;;;;;26.33;19.67;;;;;;;;4995982;28;45424;-67
2022/03/28 13:53:01;;;;;;;;;22.33;19.33;;;;;;;;5013130;28;45386;-67
2022/03/28 13:55:27;;;;;;;;;23.00;20.33;;;;;;;;5004376;28;45531;-67
2022/03/28 13:57:52;;;;;;;;;25.67;22.33;;;;;;;;4995418;28;45439;-68
2022/03/28 14:00:18;;;;;;;;;27.00;26.33;;;;;;;;4995356;28;45944;-67
2022/03/28 14:02:43;;;;;;;;;23.00;21.00;;;;;;;;4992488;28;47454;-67
2022/03/28 14:05:08;;;;;;;;;25.33;22.67;;;;;;;;4994934;28;45424;-67
2022/03/28 14:07:35;;;;;;;;;26.00;23.00;;;;;;;;5011465;28;45392;-67
2022/03/28 14:10:00;;;;;;;;;35.67;28.33;;;;;;;;5014909;28;45353;-67
2022/03/28 14:12:25;;;;;;;;;23.33;21.33;;;;;;;;4997693;28;45885;-67
2022/03/28 14:14:51;;;;;;;;;19.67;19.67;;;;;;;;4998714;28;45264;-67
2022/03/28 14:17:16;;;;;;;;;25.67;22.33;;;;;;;;4995085;28;45512;-67
2022/03/28 14:19:43;;;;;;;;;36.67;29.67;;;;;;;;5006734;28;45177;-67